sensor_id;sensor_type;location;lat;lon;timestamp;P1;durP1;ratioP1;P2;durP2;ratioP2
16472;SDS011;8347;52.486;13.432;2022-10-22T05:01:14;15.48;;;11.10;;
16472;SDS011;8347;52.486;13.432;2022-10-22T05:04:02;15.50;;;11.57;;
16472;SDS011;8347;52.486;13.432;2022-10-22T05:06:49;13.95;;;11.35;;
16472;SDS011;8347;52.486;13.432;2022-10-22T05:09:36;14.63;;;11.20;;
16472;SDS011;8347;52.486;13.432;2022-10-22T05:12:23;16.17;;;11.27;;
16472;SDS011;8347;52.486;13.432;2022-10-22T05:15:10;15.35;;;11.35;;
16472;SDS011;8347;52.486;13.432;2022-10-22T05:17:57;17.98;;;12.77;;
16472;SDS011;8347;52.486;13.432;2022-10-22T05:20:43;28.10;;;18.58;;
16472;SDS011;8347;52.486;13.432;2022-10-22T05:23:30;25.50;;;19.00;;
16472;SDS011;8347;52.486;13.432;2022-10-22T05:26:17;18.30;;;13.50;;
16472;SDS011;8347;52.486;13.432;2022-10-22T05:29:04;18.77;;;13.68;;
16472;SDS011;8347;52.486;13.432;2022-10-22T05:31:51;16.98;;;12.93;;
16472;SDS011;8347;52.486;13.432;2022-10-22T05:34:38;19.50;;;13.35;;
16472;SDS011;8347;52.486;13.432;2022-10-22T05:37:24;18.73;;;13.63;;
16472;SDS011;8347;52.486;13.432;2022-10-22T05:40:11;19.10;;;12.45;;
16472;SDS011;8347;52.486;13.432;2022-10-22T05:42:57;18.42;;;11.93;;
16472;SDS011;8347;52.486;13.432;2022-10-22T05:45:44;16.42;;;12.32;;
16472;SDS011;8347;52.486;13.432;2022-10-22T05:48:31;17.65;;;12.57;;
16472;SDS011;8347;52.486;13.432;2022-10-22T05:51:18;19.38;;;13.30;;
16472;SDS011;8347;52.486;13.432;2022-10-22T05:54:05;17.88;;;12.38;;
16472;SDS011;8347;52.486;13.432;2022-10-22T05:56:52;18.90;;;13.13;;
16472;SDS011;8347;52.486;13.432;2022-10-22T05:59:40;19.30;;;13.23;;
16472;SDS011;8347;52.486;13.432;2022-10-22T06:02:26;19.55;;;13.18;;
16472;SDS011;8347;52.486;13.432;2022-10-22T06:05:12;18.88;;;12.13;;
16472;SDS011;8347;52.486;13.432;2022-10-22T06:07:59;17.77;;;13.45;;
16472;SDS011;8347;52.486;13.432;2022-10-22T06:10:46;19.67;;;14.15;;
16472;SDS011;8347;52.486;13.432;2022-10-22T06:13:32;23.38;;;14.25;;
16472;SDS011;8347;52.486;13.432;2022-10-22T06:16:19;20.10;;;11.90;;
16472;SDS011;8347;52.486;13.432;2022-10-22T06:19:06;22.38;;;13.07;;
16472;SDS011;8347;52.486;13.432;2022-10-22T06:21:54;18.15;;;12.55;;
16472;SDS011;8347;52.486;13.432;2022-10-22T06:24:40;21.40;;;13.98;;
16472;SDS011;8347;52.486;13.432;2022-10-22T06:27:27;20.30;;;14.60;;
16472;SDS011;8347;52.486;13.432;2022-10-22T06:30:14;18.48;;;12.50;;
16472;SDS011;8347;52.486;13.432;2022-10-22T06:33:00;17.65;;;12.93;;
16472;SDS011;8347;52.486;13.432;2022-10-22T06:35:47;23.65;;;14.38;;
16472;SDS011;8347;52.486;13.432;2022-10-22T06:38:33;17.95;;;13.55;;
16472;SDS011;8347;52.486;13.432;2022-10-22T06:41:21;22.70;;;14.52;;
16472;SDS011;8347;52.486;13.432;2022-10-22T06:44:10;25.75;;;13.60;;
16472;SDS011;8347;52.486;13.432;2022-10-22T06:46:58;21.17;;;12.65;;
16472;SDS011;8347;52.486;13.432;2022-10-22T06:49:45;21.45;;;13.45;;
16472;SDS011;8347;52.486;13.432;2022-10-22T06:52:31;19.38;;;13.50;;
16472;SDS011;8347;52.486;13.432;2022-10-22T06:55:18;24.52;;;14.57;;
16472;SDS011;8347;52.486;13.432;2022-10-22T06:58:05;20.80;;;14.27;;
16472;SDS011;8347;52.486;13.432;2022-10-22T07:01:01;20.83;;;14.15;;
16472;SDS011;8347;52.486;13.432;2022-10-22T07:03:56;19.10;;;13.27;;
16472;SDS011;8347;52.486;13.432;2022-10-22T07:06:42;17.25;;;12.95;;
16472;SDS011;8347;52.486;13.432;2022-10-22T07:09:29;17.88;;;11.90;;
16472;SDS011;8347;52.486;13.432;2022-10-22T07:12:16;22.58;;;15.27;;
16472;SDS011;8347;52.486;13.432;2022-10-22T07:15:03;19.85;;;13.80;;
16472;SDS011;8347;52.486;13.432;2022-10-22T07:17:49;17.25;;;12.50;;
16472;SDS011;8347;52.486;13.432;2022-10-22T07:20:36;22.25;;;14.52;;
16472;SDS011;8347;52.486;13.432;2022-10-22T07:23:22;17.50;;;12.57;;
16472;SDS011;8347;52.486;13.432;2022-10-22T07:26:10;27.88;;;17.80;;
16472;SDS011;8347;52.486;13.432;2022-10-22T07:28:58;33.47;;;22.08;;
16472;SDS011;8347;52.486;13.432;2022-10-22T07:31:45;22.70;;;16.75;;
16472;SDS011;8347;52.486;13.432;2022-10-22T07:34:32;18.15;;;13.85;;
16472;SDS011;8347;52.486;13.432;2022-10-22T07:37:18;16.95;;;12.57;;
16472;SDS011;8347;52.486;13.432;2022-10-22T07:40:08;17.15;;;12.38;;
16472;SDS011;8347;52.486;13.432;2022-10-22T07:42:55;16.85;;;12.27;;
16472;SDS011;8347;52.486;13.432;2022-10-22T07:45:41;17.45;;;13.45;;
16472;SDS011;8347;52.486;13.432;2022-10-22T07:48:28;16.20;;;12.95;;
16472;SDS011;8347;52.486;13.432;2022-10-22T07:51:14;17.38;;;12.18;;
16472;SDS011;8347;52.486;13.432;2022-10-22T07:54:01;24.05;;;16.75;;
16472;SDS011;8347;52.486;13.432;2022-10-22T07:56:48;17.23;;;13.30;;
16472;SDS011;8347;52.486;13.432;2022-10-22T07:59:35;19.58;;;12.65;;
16472;SDS011;8347;52.486;13.432;2022-10-22T08:02:21;17.90;;;12.90;;
16472;SDS011;8347;52.486;13.432;2022-10-22T08:05:08;17.65;;;12.05;;
16472;SDS011;8347;52.486;13.432;2022-10-22T08:07:54;15.15;;;11.98;;
16472;SDS011;8347;52.486;13.432;2022-10-22T08:10:41;16.45;;;12.48;;
16472;SDS011;8347;52.486;13.432;2022-10-22T08:13:28;16.73;;;12.05;;
16472;SDS011;8347;52.486;13.432;2022-10-22T08:16:15;19.77;;;12.35;;
16472;SDS011;8347;52.486;13.432;2022-10-22T08:19:02;20.63;;;12.27;;
16472;SDS011;8347;52.486;13.432;2022-10-22T08:21:48;16.50;;;11.52;;
16472;SDS011;8347;52.486;13.432;2022-10-22T08:24:35;16.60;;;11.80;;
16472;SDS011;8347;52.486;13.432;2022-10-22T08:27:22;16.05;;;11.38;;
16472;SDS011;8347;52.486;13.432;2022-10-22T08:30:09;14.57;;;12.07;;
16472;SDS011;8347;52.486;13.432;2022-10-22T08:32:55;15.13;;;11.70;;
16472;SDS011;8347;52.486;13.432;2022-10-22T08:35:46;18.42;;;13.10;;
16472;SDS011;8347;52.486;13.432;2022-10-22T08:38:36;15.05;;;11.48;;
16472;SDS011;8347;52.486;13.432;2022-10-22T08:41:23;15.43;;;12.27;;
16472;SDS011;8347;52.486;13.432;2022-10-22T08:44:14;17.05;;;12.73;;
16472;SDS011;8347;52.486;13.432;2022-10-22T08:49:55;15.48;;;11.98;;
16472;SDS011;8347;52.486;13.432;2022-10-22T08:52:45;17.55;;;12.43;;
16472;SDS011;8347;52.486;13.432;2022-10-22T08:55:34;17.27;;;12.15;;
16472;SDS011;8347;52.486;13.432;2022-10-22T09:01:19;18.35;;;13.65;;
16472;SDS011;8347;52.486;13.432;2022-10-22T09:04:10;19.80;;;13.02;;
16472;SDS011;8347;52.486;13.432;2022-10-22T09:07:07;16.88;;;12.68;;
16472;SDS011;8347;52.486;13.432;2022-10-22T09:09:54;15.60;;;11.68;;
16472;SDS011;8347;52.486;13.432;2022-10-22T09:12:43;17.63;;;13.38;;
16472;SDS011;8347;52.486;13.432;2022-10-22T09:15:30;18.92;;;13.13;;
16472;SDS011;8347;52.486;13.432;2022-10-22T09:18:32;18.80;;;13.38;;
16472;SDS011;8347;52.486;13.432;2022-10-22T09:21:27;15.00;;;11.48;;
16472;SDS011;8347;52.486;13.432;2022-10-22T09:24:33;19.65;;;13.52;;
16472;SDS011;8347;52.486;13.432;2022-10-22T09:27:25;17.92;;;13.13;;
16472;SDS011;8347;52.486;13.432;2022-10-22T09:30:17;24.83;;;13.82;;
16472;SDS011;8347;52.486;13.432;2022-10-22T09:33:09;20.35;;;14.60;;
16472;SDS011;8347;52.486;13.432;2022-10-22T09:35:59;19.13;;;14.25;;
16472;SDS011;8347;52.486;13.432;2022-10-22T09:38:52;17.45;;;13.35;;
16472;SDS011;8347;52.486;13.432;2022-10-22T09:41:38;18.80;;;13.75;;
16472;SDS011;8347;52.486;13.432;2022-10-22T09:44:25;19.63;;;12.95;;
16472;SDS011;8347;52.486;13.432;2022-10-22T09:47:26;16.50;;;12.38;;
16472;SDS011;8347;52.486;13.432;2022-10-22T09:50:18;24.02;;;14.73;;
16472;SDS011;8347;52.486;13.432;2022-10-22T09:53:58;18.55;;;14.10;;
16472;SDS011;8347;52.486;13.432;2022-10-22T09:56:39;17.13;;;13.52;;
16472;SDS011;8347;52.486;13.432;2022-10-22T09:59:28;18.13;;;13.38;;
16472;SDS011;8347;52.486;13.432;2022-10-22T10:02:17;19.20;;;13.65;;
16472;SDS011;8347;52.486;13.432;2022-10-22T10:05:04;17.20;;;13.35;;
16472;SDS011;8347;52.486;13.432;2022-10-22T10:07:51;17.13;;;13.23;;
16472;SDS011;8347;52.486;13.432;2022-10-22T10:10:42;17.63;;;12.30;;
16472;SDS011;8347;52.486;13.432;2022-10-22T10:13:42;18.17;;;11.93;;
16472;SDS011;8347;52.486;13.432;2022-10-22T10:16:39;16.85;;;13.15;;
16472;SDS011;8347;52.486;13.432;2022-10-22T10:19:42;15.25;;;13.00;;
16472;SDS011;8347;52.486;13.432;2022-10-22T10:22:50;16.98;;;11.98;;
16472;SDS011;8347;52.486;13.432;2022-10-22T10:25:54;19.02;;;13.15;;
16472;SDS011;8347;52.486;13.432;2022-10-22T10:28:50;19.15;;;13.02;;
16472;SDS011;8347;52.486;13.432;2022-10-22T10:31:59;15.27;;;11.80;;
16472;SDS011;8347;52.486;13.432;2022-10-22T10:34:52;14.20;;;11.40;;
16472;SDS011;8347;52.486;13.432;2022-10-22T10:37:53;18.58;;;12.93;;
16472;SDS011;8347;52.486;13.432;2022-10-22T10:40:49;20.38;;;12.93;;
16472;SDS011;8347;52.486;13.432;2022-10-22T10:46:30;23.40;;;15.55;;
16472;SDS011;8347;52.486;13.432;2022-10-22T10:49:19;20.15;;;14.65;;
16472;SDS011;8347;52.486;13.432;2022-10-22T10:52:27;21.88;;;15.55;;
16472;SDS011;8347;52.486;13.432;2022-10-22T10:55:17;16.73;;;13.93;;
16472;SDS011;8347;52.486;13.432;2022-10-22T10:58:37;19.33;;;14.73;;
16472;SDS011;8347;52.486;13.432;2022-10-22T11:01:36;19.88;;;15.30;;
16472;SDS011;8347;52.486;13.432;2022-10-22T11:04:41;20.58;;;15.10;;
16472;SDS011;8347;52.486;13.432;2022-10-22T11:07:35;20.38;;;14.00;;
16472;SDS011;8347;52.486;13.432;2022-10-22T11:10:31;17.67;;;14.05;;
16472;SDS011;8347;52.486;13.432;2022-10-22T11:13:35;18.23;;;15.38;;
16472;SDS011;8347;52.486;13.432;2022-10-22T11:16:26;27.02;;;18.92;;
16472;SDS011;8347;52.486;13.432;2022-10-22T11:19:22;25.00;;;16.65;;
16472;SDS011;8347;52.486;13.432;2022-10-22T11:25:45;21.58;;;14.93;;
16472;SDS011;8347;52.486;13.432;2022-10-22T11:28:33;23.20;;;15.48;;
16472;SDS011;8347;52.486;13.432;2022-10-22T14:30:39;10.82;;;5.50;;
16472;SDS011;8347;52.486;13.432;2022-10-22T14:33:27;15.23;;;7.13;;
16472;SDS011;8347;52.486;13.432;2022-10-22T14:36:15;13.52;;;6.63;;
16472;SDS011;8347;52.486;13.432;2022-10-22T14:39:02;12.57;;;6.35;;
16472;SDS011;8347;52.486;13.432;2022-10-22T14:41:49;11.50;;;6.00;;
16472;SDS011;8347;52.486;13.432;2022-10-22T14:44:35;5.93;;;4.75;;
16472;SDS011;8347;52.486;13.432;2022-10-22T14:47:21;8.75;;;4.93;;
16472;SDS011;8347;52.486;13.432;2022-10-22T14:50:08;11.85;;;6.03;;
16472;SDS011;8347;52.486;13.432;2022-10-22T14:52:55;15.80;;;5.53;;
16472;SDS011;8347;52.486;13.432;2022-10-22T14:55:44;15.52;;;5.80;;
16472;SDS011;8347;52.486;13.432;2022-10-22T14:58:32;11.13;;;5.40;;
16472;SDS011;8347;52.486;13.432;2022-10-22T15:01:18;12.02;;;6.80;;
16472;SDS011;8347;52.486;13.432;2022-10-22T15:04:05;10.35;;;6.53;;
16472;SDS011;8347;52.486;13.432;2022-10-22T15:06:52;12.45;;;6.38;;
16472;SDS011;8347;52.486;13.432;2022-10-22T15:09:41;16.17;;;7.80;;
16472;SDS011;8347;52.486;13.432;2022-10-22T15:12:27;18.98;;;7.60;;
16472;SDS011;8347;52.486;13.432;2022-10-22T15:15:14;13.32;;;6.63;;
16472;SDS011;8347;52.486;13.432;2022-10-22T15:18:00;10.95;;;5.80;;
16472;SDS011;8347;52.486;13.432;2022-10-22T15:20:53;11.18;;;5.95;;
16472;SDS011;8347;52.486;13.432;2022-10-22T15:23:39;13.20;;;5.82;;
16472;SDS011;8347;52.486;13.432;2022-10-22T15:26:26;12.55;;;8.15;;
16472;SDS011;8347;52.486;13.432;2022-10-22T15:29:13;11.80;;;7.95;;
16472;SDS011;8347;52.486;13.432;2022-10-22T15:32:00;15.00;;;7.60;;
16472;SDS011;8347;52.486;13.432;2022-10-22T15:34:47;13.40;;;7.47;;
16472;SDS011;8347;52.486;13.432;2022-10-22T15:37:34;17.48;;;9.70;;
16472;SDS011;8347;52.486;13.432;2022-10-22T15:40:22;15.48;;;8.65;;
16472;SDS011;8347;52.486;13.432;2022-10-22T15:43:08;12.23;;;8.32;;
16472;SDS011;8347;52.486;13.432;2022-10-22T15:46:07;17.48;;;10.05;;
16472;SDS011;8347;52.486;13.432;2022-10-22T15:48:54;23.00;;;12.65;;
16472;SDS011;8347;52.486;13.432;2022-10-22T15:51:41;23.98;;;13.00;;
16472;SDS011;8347;52.486;13.432;2022-10-22T15:54:28;23.10;;;12.65;;
16472;SDS011;8347;52.486;13.432;2022-10-22T15:57:15;19.67;;;11.60;;
16472;SDS011;8347;52.486;13.432;2022-10-22T16:00:02;18.45;;;10.75;;
16472;SDS011;8347;52.486;13.432;2022-10-22T16:02:58;14.95;;;9.57;;
16472;SDS011;8347;52.486;13.432;2022-10-22T16:05:51;15.80;;;8.90;;
16472;SDS011;8347;52.486;13.432;2022-10-22T16:08:41;14.45;;;8.65;;
16472;SDS011;8347;52.486;13.432;2022-10-22T16:11:28;16.52;;;10.00;;
16472;SDS011;8347;52.486;13.432;2022-10-22T16:14:16;15.07;;;8.82;;
16472;SDS011;8347;52.486;13.432;2022-10-22T16:17:04;18.92;;;11.20;;
16472;SDS011;8347;52.486;13.432;2022-10-22T16:19:51;27.75;;;14.73;;
16472;SDS011;8347;52.486;13.432;2022-10-22T16:22:38;29.77;;;18.38;;
16472;SDS011;8347;52.486;13.432;2022-10-22T16:25:24;21.67;;;14.88;;
16472;SDS011;8347;52.486;13.432;2022-10-22T16:28:11;24.77;;;14.18;;
16472;SDS011;8347;52.486;13.432;2022-10-22T16:31:05;21.58;;;13.27;;
16472;SDS011;8347;52.486;13.432;2022-10-22T16:33:53;27.83;;;13.93;;
16472;SDS011;8347;52.486;13.432;2022-10-22T16:36:40;25.60;;;13.13;;
16472;SDS011;8347;52.486;13.432;2022-10-22T16:39:26;23.23;;;12.57;;
16472;SDS011;8347;52.486;13.432;2022-10-22T16:42:13;25.17;;;15.10;;
16472;SDS011;8347;52.486;13.432;2022-10-22T16:45:00;32.47;;;16.45;;
16472;SDS011;8347;52.486;13.432;2022-10-22T16:47:46;25.60;;;16.02;;
16472;SDS011;8347;52.486;13.432;2022-10-22T16:50:33;27.92;;;15.15;;
16472;SDS011;8347;52.486;13.432;2022-10-22T16:53:20;34.38;;;17.17;;
16472;SDS011;8347;52.486;13.432;2022-10-22T16:56:07;28.17;;;17.27;;
16472;SDS011;8347;52.486;13.432;2022-10-22T16:58:55;41.85;;;19.52;;
16472;SDS011;8347;52.486;13.432;2022-10-22T17:01:42;31.70;;;19.60;;
16472;SDS011;8347;52.486;13.432;2022-10-22T17:04:28;33.70;;;19.33;;
16472;SDS011;8347;52.486;13.432;2022-10-22T17:07:15;36.75;;;18.73;;
16472;SDS011;8347;52.486;13.432;2022-10-22T17:10:02;37.78;;;18.60;;
16472;SDS011;8347;52.486;13.432;2022-10-22T17:12:49;28.40;;;18.02;;
16472;SDS011;8347;52.486;13.432;2022-10-22T17:15:36;36.97;;;19.98;;
16472;SDS011;8347;52.486;13.432;2022-10-22T17:18:22;37.15;;;21.67;;
16472;SDS011;8347;52.486;13.432;2022-10-22T17:21:09;29.08;;;16.85;;
16472;SDS011;8347;52.486;13.432;2022-10-22T17:23:57;24.73;;;16.60;;
16472;SDS011;8347;52.486;13.432;2022-10-22T17:26:43;40.00;;;20.67;;
16472;SDS011;8347;52.486;13.432;2022-10-22T17:29:30;39.60;;;25.05;;
16472;SDS011;8347;52.486;13.432;2022-10-22T17:32:17;32.55;;;20.85;;
16472;SDS011;8347;52.486;13.432;2022-10-22T17:35:04;48.25;;;25.45;;
16472;SDS011;8347;52.486;13.432;2022-10-22T17:37:52;45.42;;;23.13;;
16472;SDS011;8347;52.486;13.432;2022-10-22T17:40:38;45.38;;;25.73;;
16472;SDS011;8347;52.486;13.432;2022-10-22T17:43:25;26.77;;;16.67;;
16472;SDS011;8347;52.486;13.432;2022-10-22T17:46:16;23.45;;;13.02;;
16472;SDS011;8347;52.486;13.432;2022-10-22T17:49:09;19.58;;;11.35;;
16472;SDS011;8347;52.486;13.432;2022-10-22T17:51:58;18.05;;;12.63;;
16472;SDS011;8347;52.486;13.432;2022-10-22T17:54:44;24.92;;;14.02;;
16472;SDS011;8347;52.486;13.432;2022-10-22T17:57:33;26.67;;;13.48;;
16472;SDS011;8347;52.486;13.432;2022-10-22T18:00:19;22.17;;;13.80;;
16472;SDS011;8347;52.486;13.432;2022-10-22T18:03:07;25.52;;;13.32;;
16472;SDS011;8347;52.486;13.432;2022-10-22T18:05:54;21.75;;;13.90;;
16472;SDS011;8347;52.486;13.432;2022-10-22T18:08:40;24.40;;;13.23;;
16472;SDS011;8347;52.486;13.432;2022-10-22T18:11:27;24.17;;;14.63;;
16472;SDS011;8347;52.486;13.432;2022-10-22T18:14:16;18.83;;;13.02;;
16472;SDS011;8347;52.486;13.432;2022-10-22T18:17:03;24.13;;;14.48;;
16472;SDS011;8347;52.486;13.432;2022-10-22T18:19:49;19.85;;;14.05;;
16472;SDS011;8347;52.486;13.432;2022-10-22T18:22:36;19.70;;;12.57;;
16472;SDS011;8347;52.486;13.432;2022-10-22T18:25:25;19.38;;;11.63;;
16472;SDS011;8347;52.486;13.432;2022-10-22T18:28:12;18.20;;;11.65;;
16472;SDS011;8347;52.486;13.432;2022-10-22T18:31:03;23.17;;;13.13;;
16472;SDS011;8347;52.486;13.432;2022-10-22T18:33:53;22.90;;;12.82;;
16472;SDS011;8347;52.486;13.432;2022-10-22T18:36:39;24.60;;;13.80;;
16472;SDS011;8347;52.486;13.432;2022-10-22T18:39:26;20.35;;;12.48;;
16472;SDS011;8347;52.486;13.432;2022-10-22T18:42:13;18.85;;;13.13;;
16472;SDS011;8347;52.486;13.432;2022-10-22T18:44:59;18.98;;;13.00;;
16472;SDS011;8347;52.486;13.432;2022-10-22T18:47:46;22.13;;;14.23;;
16472;SDS011;8347;52.486;13.432;2022-10-22T18:50:33;21.52;;;13.10;;
16472;SDS011;8347;52.486;13.432;2022-10-22T18:53:19;22.13;;;14.73;;
16472;SDS011;8347;52.486;13.432;2022-10-22T18:56:07;24.50;;;15.85;;
16472;SDS011;8347;52.486;13.432;2022-10-22T18:58:54;24.35;;;17.63;;
16472;SDS011;8347;52.486;13.432;2022-10-22T19:01:40;27.98;;;15.60;;
16472;SDS011;8347;52.486;13.432;2022-10-22T19:04:27;21.75;;;14.25;;
16472;SDS011;8347;52.486;13.432;2022-10-22T19:07:18;21.27;;;13.60;;
16472;SDS011;8347;52.486;13.432;2022-10-22T19:10:04;15.45;;;11.73;;
16472;SDS011;8347;52.486;13.432;2022-10-22T19:12:51;17.05;;;13.18;;
16472;SDS011;8347;52.486;13.432;2022-10-22T19:15:38;17.02;;;11.85;;
16472;SDS011;8347;52.486;13.432;2022-10-22T19:18:24;19.80;;;13.90;;
16472;SDS011;8347;52.486;13.432;2022-10-22T19:21:11;22.15;;;14.07;;
16472;SDS011;8347;52.486;13.432;2022-10-22T19:23:58;24.63;;;14.82;;
16472;SDS011;8347;52.486;13.432;2022-10-22T19:26:45;25.70;;;16.75;;
16472;SDS011;8347;52.486;13.432;2022-10-22T19:29:32;24.73;;;16.05;;
16472;SDS011;8347;52.486;13.432;2022-10-22T19:32:18;21.58;;;14.13;;
16472;SDS011;8347;52.486;13.432;2022-10-22T19:35:05;18.73;;;13.15;;
16472;SDS011;8347;52.486;13.432;2022-10-22T19:37:52;19.30;;;13.27;;
16472;SDS011;8347;52.486;13.432;2022-10-22T19:40:42;20.00;;;13.48;;
16472;SDS011;8347;52.486;13.432;2022-10-22T19:43:28;20.98;;;13.50;;
16472;SDS011;8347;52.486;13.432;2022-10-22T19:46:15;24.58;;;13.45;;
16472;SDS011;8347;52.486;13.432;2022-10-22T19:49:03;16.33;;;11.50;;
16472;SDS011;8347;52.486;13.432;2022-10-22T19:51:50;15.90;;;10.73;;
16472;SDS011;8347;52.486;13.432;2022-10-22T19:54:36;14.35;;;11.07;;
16472;SDS011;8347;52.486;13.432;2022-10-22T19:57:25;15.48;;;11.77;;
16472;SDS011;8347;52.486;13.432;2022-10-22T20:00:12;16.17;;;11.38;;
16472;SDS011;8347;52.486;13.432;2022-10-22T20:03:00;16.10;;;12.35;;
16472;SDS011;8347;52.486;13.432;2022-10-22T20:05:49;19.63;;;12.32;;
16472;SDS011;8347;52.486;13.432;2022-10-22T20:08:36;16.00;;;10.40;;
16472;SDS011;8347;52.486;13.432;2022-10-22T20:11:24;18.98;;;11.68;;
16472;SDS011;8347;52.486;13.432;2022-10-22T20:14:11;22.63;;;15.52;;
16472;SDS011;8347;52.486;13.432;2022-10-22T20:16:58;19.92;;;13.40;;
16472;SDS011;8347;52.486;13.432;2022-10-22T20:19:45;20.20;;;13.98;;
16472;SDS011;8347;52.486;13.432;2022-10-22T20:22:31;23.65;;;14.60;;
16472;SDS011;8347;52.486;13.432;2022-10-22T20:25:18;17.80;;;12.70;;
16472;SDS011;8347;52.486;13.432;2022-10-22T20:28:05;13.88;;;10.57;;
16472;SDS011;8347;52.486;13.432;2022-10-22T20:30:51;13.65;;;10.45;;
16472;SDS011;8347;52.486;13.432;2022-10-22T20:33:38;17.88;;;12.60;;
16472;SDS011;8347;52.486;13.432;2022-10-22T20:36:25;18.80;;;13.95;;
16472;SDS011;8347;52.486;13.432;2022-10-22T20:39:13;20.00;;;13.63;;
16472;SDS011;8347;52.486;13.432;2022-10-22T20:42:00;19.75;;;14.60;;
16472;SDS011;8347;52.486;13.432;2022-10-22T20:44:46;18.17;;;14.20;;
16472;SDS011;8347;52.486;13.432;2022-10-22T20:47:33;17.85;;;13.00;;
16472;SDS011;8347;52.486;13.432;2022-10-22T20:50:19;19.33;;;15.57;;
16472;SDS011;8347;52.486;13.432;2022-10-22T20:53:09;23.98;;;16.75;;
16472;SDS011;8347;52.486;13.432;2022-10-22T20:55:56;20.30;;;15.35;;
16472;SDS011;8347;52.486;13.432;2022-10-22T20:58:44;20.30;;;13.23;;
16472;SDS011;8347;52.486;13.432;2022-10-22T21:01:36;16.73;;;12.48;;
16472;SDS011;8347;52.486;13.432;2022-10-22T21:04:23;19.13;;;14.25;;
16472;SDS011;8347;52.486;13.432;2022-10-22T21:07:09;21.10;;;15.00;;
16472;SDS011;8347;52.486;13.432;2022-10-22T21:09:56;21.30;;;13.73;;
16472;SDS011;8347;52.486;13.432;2022-10-22T21:12:43;15.98;;;11.85;;
16472;SDS011;8347;52.486;13.432;2022-10-22T21:15:30;20.40;;;12.68;;
16472;SDS011;8347;52.486;13.432;2022-10-22T21:18:16;18.83;;;13.10;;
16472;SDS011;8347;52.486;13.432;2022-10-22T21:21:03;21.35;;;13.98;;
16472;SDS011;8347;52.486;13.432;2022-10-22T21:23:50;18.13;;;12.82;;
16472;SDS011;8347;52.486;13.432;2022-10-22T21:26:37;18.85;;;12.57;;
16472;SDS011;8347;52.486;13.432;2022-10-22T21:29:24;15.73;;;11.63;;
16472;SDS011;8347;52.486;13.432;2022-10-22T21:32:10;19.15;;;12.20;;
16472;SDS011;8347;52.486;13.432;2022-10-22T21:34:57;14.48;;;10.60;;
16472;SDS011;8347;52.486;13.432;2022-10-22T21:37:43;17.65;;;10.98;;
16472;SDS011;8347;52.486;13.432;2022-10-22T21:40:30;17.00;;;10.57;;
16472;SDS011;8347;52.486;13.432;2022-10-22T21:43:17;16.17;;;11.55;;
16472;SDS011;8347;52.486;13.432;2022-10-22T21:46:04;16.77;;;11.75;;
16472;SDS011;8347;52.486;13.432;2022-10-22T21:48:55;14.55;;;10.80;;
16472;SDS011;8347;52.486;13.432;2022-10-22T21:51:43;13.75;;;10.20;;
16472;SDS011;8347;52.486;13.432;2022-10-22T21:54:29;12.00;;;8.77;;
16472;SDS011;8347;52.486;13.432;2022-10-22T21:57:16;13.18;;;8.35;;
16472;SDS011;8347;52.486;13.432;2022-10-22T22:00:04;11.90;;;7.85;;
16472;SDS011;8347;52.486;13.432;2022-10-22T22:02:51;13.70;;;10.68;;
16472;SDS011;8347;52.486;13.432;2022-10-22T22:05:37;15.98;;;10.93;;
16472;SDS011;8347;52.486;13.432;2022-10-22T22:08:24;13.60;;;10.50;;
16472;SDS011;8347;52.486;13.432;2022-10-22T22:11:16;14.25;;;8.45;;
16472;SDS011;8347;52.486;13.432;2022-10-22T22:14:02;13.60;;;8.40;;
16472;SDS011;8347;52.486;13.432;2022-10-22T22:16:49;14.27;;;8.00;;
16472;SDS011;8347;52.486;13.432;2022-10-22T22:19:39;10.18;;;7.45;;
16472;SDS011;8347;52.486;13.432;2022-10-22T22:22:25;11.02;;;8.40;;
16472;SDS011;8347;52.486;13.432;2022-10-22T22:25:12;11.48;;;7.82;;
16472;SDS011;8347;52.486;13.432;2022-10-22T22:27:58;10.93;;;8.25;;
16472;SDS011;8347;52.486;13.432;2022-10-22T22:30:45;15.23;;;9.70;;
16472;SDS011;8347;52.486;13.432;2022-10-22T22:33:31;15.32;;;10.50;;
16472;SDS011;8347;52.486;13.432;2022-10-22T22:36:18;16.35;;;11.10;;
16472;SDS011;8347;52.486;13.432;2022-10-22T22:39:05;16.83;;;8.70;;
16472;SDS011;8347;52.486;13.432;2022-10-22T22:41:52;11.63;;;7.32;;
16472;SDS011;8347;52.486;13.432;2022-10-22T22:44:39;12.38;;;7.88;;
16472;SDS011;8347;52.486;13.432;2022-10-22T22:47:25;12.15;;;7.53;;
16472;SDS011;8347;52.486;13.432;2022-10-22T22:50:12;16.17;;;8.18;;
16472;SDS011;8347;52.486;13.432;2022-10-22T22:52:59;11.05;;;7.45;;
16472;SDS011;8347;52.486;13.432;2022-10-22T22:55:45;15.15;;;7.75;;
16472;SDS011;8347;52.486;13.432;2022-10-22T22:58:31;11.45;;;8.00;;
16472;SDS011;8347;52.486;13.432;2022-10-22T23:04:05;10.98;;;8.32;;
16472;SDS011;8347;52.486;13.432;2022-10-22T23:06:55;14.52;;;10.02;;
16472;SDS011;8347;52.486;13.432;2022-10-22T23:09:42;15.20;;;8.05;;
16472;SDS011;8347;52.486;13.432;2022-10-22T23:12:28;12.38;;;7.45;;
16472;SDS011;8347;52.486;13.432;2022-10-22T23:15:14;12.02;;;8.35;;
16472;SDS011;8347;52.486;13.432;2022-10-22T23:18:01;13.25;;;8.73;;
16472;SDS011;8347;52.486;13.432;2022-10-22T23:20:47;14.85;;;8.18;;
16472;SDS011;8347;52.486;13.432;2022-10-22T23:23:34;11.57;;;8.23;;
16472;SDS011;8347;52.486;13.432;2022-10-22T23:26:21;14.73;;;8.27;;
16472;SDS011;8347;52.486;13.432;2022-10-22T23:29:12;12.52;;;8.02;;
16472;SDS011;8347;52.486;13.432;2022-10-22T23:32:01;14.18;;;9.38;;
16472;SDS011;8347;52.486;13.432;2022-10-22T23:34:49;11.10;;;8.23;;
16472;SDS011;8347;52.486;13.432;2022-10-22T23:37:36;12.07;;;7.78;;
16472;SDS011;8347;52.486;13.432;2022-10-22T23:40:22;13.32;;;7.47;;
16472;SDS011;8347;52.486;13.432;2022-10-22T23:43:08;14.15;;;7.90;;
16472;SDS011;8347;52.486;13.432;2022-10-22T23:45:55;11.95;;;8.45;;
16472;SDS011;8347;52.486;13.432;2022-10-22T23:48:42;16.95;;;8.25;;
16472;SDS011;8347;52.486;13.432;2022-10-22T23:51:28;11.07;;;6.72;;
16472;SDS011;8347;52.486;13.432;2022-10-22T23:54:15;8.75;;;6.72;;
16472;SDS011;8347;52.486;13.432;2022-10-22T23:57:03;12.90;;;7.75;;
16472;SDS011;8347;52.486;13.432;2022-10-22T23:59:49;9.27;;;6.88;;
